sensor_id;sensor_type;location;lat;lon;timestamp;P1;P2;P0
13030;PMS7003;6582;54.644;9.760;2022-10-16T00:00:02;62.5;52.4;
13030;PMS7003;6582;54.644;9.760;2022-10-16T00:05:16;63.0;52.8;
13030;PMS7003;6582;54.644;9.760;2022-10-16T00:10:01;62.9;52.5;
13030;PMS7003;6582;54.644;9.760;2022-10-16T00:15:01;64.0;52.9;
13030;PMS7003;6582;54.644;9.760;2022-10-16T00:20:01;64.8;53.7;
13030;PMS7003;6582;54.644;9.760;2022-10-16T00:25:01;64.6;53.5;
13030;PMS7003;6582;54.644;9.760;2022-10-16T00:30:02;64.0;53.0;
13030;PMS7003;6582;54.644;9.760;2022-10-16T00:35:02;63.7;53.0;
13030;PMS7003;6582;54.644;9.760;2022-10-16T00:40:01;63.3;53.2;
13030;PMS7003;6582;54.644;9.760;2022-10-16T00:45:02;62.6;52.5;
13030;PMS7003;6582;54.644;9.760;2022-10-16T01:30:12;58.2;49.2;
13030;PMS7003;6582;54.644;9.760;2022-10-16T01:35:11;57.5;49.0;
13030;PMS7003;6582;54.644;9.760;2022-10-16T01:40:03;57.1;48.8;
13030;PMS7003;6582;54.644;9.760;2022-10-16T01:45:02;66.9;58.7;
13030;PMS7003;6582;54.644;9.760;2022-10-16T01:50:03;65.6;57.2;
13030;PMS7003;6582;54.644;9.760;2022-10-16T01:55:07;66.2;57.6;
13030;PMS7003;6582;54.644;9.760;2022-10-16T02:00:04;67.0;58.2;
13030;PMS7003;6582;54.644;9.760;2022-10-16T02:05:10;68.1;59.1;
13030;PMS7003;6582;54.644;9.760;2022-10-16T02:10:02;61.2;51.9;
13030;PMS7003;6582;54.644;9.760;2022-10-16T02:15:03;62.5;52.7;
13030;PMS7003;6582;54.644;9.760;2022-10-16T02:20:03;63.2;53.3;
13030;PMS7003;6582;54.644;9.760;2022-10-16T02:25:13;61.8;52.0;
13030;PMS7003;6582;54.644;9.760;2022-10-16T02:30:06;60.8;51.2;
13030;PMS7003;6582;54.644;9.760;2022-10-16T02:35:08;60.4;50.8;
13030;PMS7003;6582;54.644;9.760;2022-10-16T02:40:07;58.9;49.9;
13030;PMS7003;6582;54.644;9.760;2022-10-16T02:45:02;58.0;49.3;
13030;PMS7003;6582;54.644;9.760;2022-10-16T02:50:02;59.0;50.3;
13030;PMS7003;6582;54.644;9.760;2022-10-16T02:55:03;59.6;50.6;
13030;PMS7003;6582;54.644;9.760;2022-10-16T03:00:08;60.9;51.6;
13030;PMS7003;6582;54.644;9.760;2022-10-16T03:05:01;60.6;51.4;
13030;PMS7003;6582;54.644;9.760;2022-10-16T03:10:02;60.0;51.1;
13030;PMS7003;6582;54.644;9.760;2022-10-16T03:15:02;59.8;50.8;
13030;PMS7003;6582;54.644;9.760;2022-10-16T04:20:03;58.8;50.2;
13030;PMS7003;6582;54.644;9.760;2022-10-16T04:25:04;58.3;49.5;
13030;PMS7003;6582;54.644;9.760;2022-10-16T04:30:02;62.7;52.5;
13030;PMS7003;6582;54.644;9.760;2022-10-16T04:35:02;65.4;54.6;
13030;PMS7003;6582;54.644;9.760;2022-10-16T05:00:02;60.6;50.8;
13030;PMS7003;6582;54.644;9.760;2022-10-16T05:05:01;60.2;50.9;
13030;PMS7003;6582;54.644;9.760;2022-10-16T05:10:02;61.9;52.1;
13030;PMS7003;6582;54.644;9.760;2022-10-16T05:15:07;62.4;52.6;
13030;PMS7003;6582;54.644;9.760;2022-10-16T05:20:01;62.8;53.0;
13030;PMS7003;6582;54.644;9.760;2022-10-16T05:25:01;63.6;53.8;
13030;PMS7003;6582;54.644;9.760;2022-10-16T05:30:02;66.0;55.3;
13030;PMS7003;6582;54.644;9.760;2022-10-16T05:35:01;66.5;55.8;
13030;PMS7003;6582;54.644;9.760;2022-10-16T05:40:06;67.4;56.5;
13030;PMS7003;6582;54.644;9.760;2022-10-16T05:45:07;66.4;55.6;
13030;PMS7003;6582;54.644;9.760;2022-10-16T06:30:36;56.4;48.2;
13030;PMS7003;6582;54.644;9.760;2022-10-16T09:50:19;41.0;37.6;
13030;PMS7003;6582;54.644;9.760;2022-10-16T09:55:09;39.9;36.8;
13030;PMS7003;6582;54.644;9.760;2022-10-16T10:00:04;41.4;37.3;
13030;PMS7003;6582;54.644;9.760;2022-10-16T11:00:13;47.4;40.4;
13030;PMS7003;6582;54.644;9.760;2022-10-16T11:20:12;42.6;38.0;
13030;PMS7003;6582;54.644;9.760;2022-10-16T11:40:16;38.0;35.8;
13030;PMS7003;6582;54.644;9.760;2022-10-16T12:00:06;43.0;38.0;
13030;PMS7003;6582;54.644;9.760;2022-10-16T12:05:18;45.3;39.8;
13030;PMS7003;6582;54.644;9.760;2022-10-16T12:10:10;44.5;39.1;
13030;PMS7003;6582;54.644;9.760;2022-10-16T12:15:34;46.3;40.4;
13030;PMS7003;6582;54.644;9.760;2022-10-16T13:00:10;40.4;37.2;
13030;PMS7003;6582;54.644;9.760;2022-10-16T13:20:06;42.2;38.6;
13030;PMS7003;6582;54.644;9.760;2022-10-16T13:40:05;41.6;37.0;
13030;PMS7003;6582;54.644;9.760;2022-10-16T13:45:01;43.6;38.2;
13030;PMS7003;6582;54.644;9.760;2022-10-16T13:50:03;42.9;38.0;
13030;PMS7003;6582;54.644;9.760;2022-10-16T13:55:11;42.5;37.9;
13030;PMS7003;6582;54.644;9.760;2022-10-16T14:00:02;42.9;38.2;
13030;PMS7003;6582;54.644;9.760;2022-10-16T14:05:02;44.5;39.3;
13030;PMS7003;6582;54.644;9.760;2022-10-16T14:10:21;45.8;40.3;
13030;PMS7003;6582;54.644;9.760;2022-10-16T14:15:02;47.0;41.0;
13030;PMS7003;6582;54.644;9.760;2022-10-16T14:20:12;49.2;42.3;
13030;PMS7003;6582;54.644;9.760;2022-10-16T14:25:13;48.2;41.4;
13030;PMS7003;6582;54.644;9.760;2022-10-16T14:50:07;44.6;38.6;
13030;PMS7003;6582;54.644;9.760;2022-10-16T14:55:02;49.2;42.3;
13030;PMS7003;6582;54.644;9.760;2022-10-16T15:00:02;51.9;44.0;
13030;PMS7003;6582;54.644;9.760;2022-10-16T15:20:03;52.2;44.6;
13030;PMS7003;6582;54.644;9.760;2022-10-16T15:25:02;54.5;45.7;
13030;PMS7003;6582;54.644;9.760;2022-10-16T15:30:02;56.5;47.4;
13030;PMS7003;6582;54.644;9.760;2022-10-16T15:35:01;56.1;47.0;
13030;PMS7003;6582;54.644;9.760;2022-10-16T15:40:02;56.4;47.2;
13030;PMS7003;6582;54.644;9.760;2022-10-16T15:45:02;56.9;47.6;
13030;PMS7003;6582;54.644;9.760;2022-10-16T15:50:02;56.3;47.2;
13030;PMS7003;6582;54.644;9.760;2022-10-16T15:55:02;56.6;47.5;
13030;PMS7003;6582;54.644;9.760;2022-10-16T16:00:12;56.9;48.0;
13030;PMS7003;6582;54.644;9.760;2022-10-16T16:05:02;57.0;48.1;
13030;PMS7003;6582;54.644;9.760;2022-10-16T16:10:03;57.7;48.4;
13030;PMS7003;6582;54.644;9.760;2022-10-16T16:15:06;58.8;49.3;
13030;PMS7003;6582;54.644;9.760;2022-10-16T16:20:02;58.1;48.6;
13030;PMS7003;6582;54.644;9.760;2022-10-16T16:25:01;58.8;49.2;
13030;PMS7003;6582;54.644;9.760;2022-10-16T16:30:01;59.7;49.7;
13030;PMS7003;6582;54.644;9.760;2022-10-16T16:35:02;60.0;50.1;
13030;PMS7003;6582;54.644;9.760;2022-10-16T16:40:02;59.3;49.9;
13030;PMS7003;6582;54.644;9.760;2022-10-16T16:45:01;59.1;49.9;
13030;PMS7003;6582;54.644;9.760;2022-10-16T16:50:01;58.2;49.3;
13030;PMS7003;6582;54.644;9.760;2022-10-16T16:55:02;57.8;49.0;
13030;PMS7003;6582;54.644;9.760;2022-10-16T17:00:06;58.6;49.7;
13030;PMS7003;6582;54.644;9.760;2022-10-16T17:05:02;59.2;50.1;
13030;PMS7003;6582;54.644;9.760;2022-10-16T17:10:02;58.8;49.9;
13030;PMS7003;6582;54.644;9.760;2022-10-16T17:15:01;59.1;50.1;
13030;PMS7003;6582;54.644;9.760;2022-10-16T17:20:01;58.6;49.6;
13030;PMS7003;6582;54.644;9.760;2022-10-16T17:25:02;57.0;48.5;
13030;PMS7003;6582;54.644;9.760;2022-10-16T17:30:02;55.8;47.4;
13030;PMS7003;6582;54.644;9.760;2022-10-16T17:35:01;56.0;47.6;
13030;PMS7003;6582;54.644;9.760;2022-10-16T17:40:02;55.6;47.2;
13030;PMS7003;6582;54.644;9.760;2022-10-16T17:45:01;59.6;50.4;
13030;PMS7003;6582;54.644;9.760;2022-10-16T17:50:02;60.4;50.9;
13030;PMS7003;6582;54.644;9.760;2022-10-16T17:55:01;63.2;53.1;
13030;PMS7003;6582;54.644;9.760;2022-10-16T18:00:06;64.4;54.1;
13030;PMS7003;6582;54.644;9.760;2022-10-16T18:05:03;64.7;54.5;
13030;PMS7003;6582;54.644;9.760;2022-10-16T18:10:14;60.3;50.9;
13030;PMS7003;6582;54.644;9.760;2022-10-16T18:15:01;60.4;50.9;
13030;PMS7003;6582;54.644;9.760;2022-10-16T18:20:01;58.7;49.7;
13030;PMS7003;6582;54.644;9.760;2022-10-16T18:25:06;57.9;49.2;
13030;PMS7003;6582;54.644;9.760;2022-10-16T18:30:01;63.6;54.4;
13030;PMS7003;6582;54.644;9.760;2022-10-16T18:35:02;65.1;55.6;
13030;PMS7003;6582;54.644;9.760;2022-10-16T18:40:02;66.0;56.4;
13030;PMS7003;6582;54.644;9.760;2022-10-16T18:45:01;68.8;58.4;
13030;PMS7003;6582;54.644;9.760;2022-10-16T18:50:01;70.8;59.6;
13030;PMS7003;6582;54.644;9.760;2022-10-16T18:55:01;65.9;55.1;
13030;PMS7003;6582;54.644;9.760;2022-10-16T19:00:02;65.1;54.7;
13030;PMS7003;6582;54.644;9.760;2022-10-16T19:05:08;64.8;54.5;
13030;PMS7003;6582;54.644;9.760;2022-10-16T19:10:02;63.6;53.6;
13030;PMS7003;6582;54.644;9.760;2022-10-16T19:15:02;62.3;52.7;
13030;PMS7003;6582;54.644;9.760;2022-10-16T19:20:03;63.8;53.9;
13030;PMS7003;6582;54.644;9.760;2022-10-16T19:25:01;65.6;55.2;
13030;PMS7003;6582;54.644;9.760;2022-10-16T19:30:02;66.6;55.9;
13030;PMS7003;6582;54.644;9.760;2022-10-16T19:35:02;67.0;56.4;
13030;PMS7003;6582;54.644;9.760;2022-10-16T19:40:02;68.3;57.4;
13030;PMS7003;6582;54.644;9.760;2022-10-16T19:45:01;67.4;56.6;
13030;PMS7003;6582;54.644;9.760;2022-10-16T20:10:02;66.6;54.6;
13030;PMS7003;6582;54.644;9.760;2022-10-16T20:15:02;68.3;55.8;
13030;PMS7003;6582;54.644;9.760;2022-10-16T20:20:02;68.8;56.8;
13030;PMS7003;6582;54.644;9.760;2022-10-16T20:25:03;74.7;63.2;
13030;PMS7003;6582;54.644;9.760;2022-10-16T20:30:02;73.2;61.6;
13030;PMS7003;6582;54.644;9.760;2022-10-16T20:35:08;73.8;62.4;
13030;PMS7003;6582;54.644;9.760;2022-10-16T20:45:02;73.8;62.5;
13030;PMS7003;6582;54.644;9.760;2022-10-16T20:50:02;69.4;57.6;
13030;PMS7003;6582;54.644;9.760;2022-10-16T20:55:02;71.4;59.3;
13030;PMS7003;6582;54.644;9.760;2022-10-16T21:00:03;70.8;58.6;
13030;PMS7003;6582;54.644;9.760;2022-10-16T21:05:02;69.8;58.1;
13030;PMS7003;6582;54.644;9.760;2022-10-16T21:10:02;75.1;62.8;
13030;PMS7003;6582;54.644;9.760;2022-10-16T21:15:16;74.5;62.4;
13030;PMS7003;6582;54.644;9.760;2022-10-16T21:20:02;72.8;61.2;
13030;PMS7003;6582;54.644;9.760;2022-10-16T21:30:02;73.6;61.9;
13030;PMS7003;6582;54.644;9.760;2022-10-16T21:35:02;68.8;57.4;
13030;PMS7003;6582;54.644;9.760;2022-10-16T21:40:02;69.8;58.2;
13030;PMS7003;6582;54.644;9.760;2022-10-16T21:45:02;70.2;58.7;
13030;PMS7003;6582;54.644;9.760;2022-10-16T21:50:02;71.8;59.6;
13030;PMS7003;6582;54.644;9.760;2022-10-16T21:55:03;74.4;62.0;
13030;PMS7003;6582;54.644;9.760;2022-10-16T22:00:11;76.1;63.6;
13030;PMS7003;6582;54.644;9.760;2022-10-16T22:05:02;78.4;65.8;
13030;PMS7003;6582;54.644;9.760;2022-10-16T22:10:03;80.1;67.0;
13030;PMS7003;6582;54.644;9.760;2022-10-16T22:15:06;81.3;68.2;
13030;PMS7003;6582;54.644;9.760;2022-10-16T22:20:02;80.0;66.5;
13030;PMS7003;6582;54.644;9.760;2022-10-16T22:25:02;77.7;64.7;
13030;PMS7003;6582;54.644;9.760;2022-10-16T22:30:02;74.8;62.2;
13030;PMS7003;6582;54.644;9.760;2022-10-16T22:35:04;74.0;61.4;
13030;PMS7003;6582;54.644;9.760;2022-10-16T22:40:02;71.5;59.2;
13030;PMS7003;6582;54.644;9.760;2022-10-16T22:45:02;70.6;58.8;
13030;PMS7003;6582;54.644;9.760;2022-10-16T22:50:07;71.4;59.4;
13030;PMS7003;6582;54.644;9.760;2022-10-16T22:55:02;72.9;60.5;
13030;PMS7003;6582;54.644;9.760;2022-10-16T23:00:03;72.8;60.6;
13030;PMS7003;6582;54.644;9.760;2022-10-16T23:05:07;81.4;71.2;
13030;PMS7003;6582;54.644;9.760;2022-10-16T23:10:01;86.0;76.7;
13030;PMS7003;6582;54.644;9.760;2022-10-16T23:15:02;85.7;76.4;
13030;PMS7003;6582;54.644;9.760;2022-10-16T23:20:02;84.1;75.2;
13030;PMS7003;6582;54.644;9.760;2022-10-16T23:25:02;83.6;74.9;
13030;PMS7003;6582;54.644;9.760;2022-10-16T23:30:02;77.0;65.8;
13030;PMS7003;6582;54.644;9.760;2022-10-16T23:35:03;73.6;61.1;
13030;PMS7003;6582;54.644;9.760;2022-10-16T23:40:02;75.0;62.1;
13030;PMS7003;6582;54.644;9.760;2022-10-16T23:45:02;77.0;63.5;
13030;PMS7003;6582;54.644;9.760;2022-10-16T23:50:02;80.3;67.3;
13030;PMS7003;6582;54.644;9.760;2022-10-16T23:55:02;80.5;67.7;
